Time;durP1;ratioP1;P1;durP2;ratioP2;P2;SDS_P1;SDS_P2;PMS_P1;PMS_P2;Temp;Humidity;BMP_temperature;BMP_pressure;BME280_temperature;BME280_humidity;BME280_pressure;Samples;Min_cycle;Max_cycle;Signal;HPM_P1;HPM_P2
2022/04/29 00:02:29;;;;;;;3.90;1.50;;;;;;;5.30;72.95;102323.46;104677;1290;61928;-71
2022/04/29 00:05:05;;;;;;;3.50;1.20;;;;;;;5.28;72.87;102324.46;104059;1288;74850;-74
2022/04/29 00:07:32;;;;;;;3.70;1.00;;;;;;;5.27;73.08;102325.63;103961;1288;71505;-74
2022/04/29 00:10:18;;;;;;;2.60;1.50;;;;;;;5.24;73.36;102326.84;104118;1288;74383;-75
2022/04/29 00:12:55;;;;;;;4.90;1.20;;;;;;;5.21;73.78;102332.17;104114;1288;61385;-74
2022/04/29 00:15:31;;;;;;;5.00;1.50;;;;;;;5.16;73.89;102327.92;104625;1288;61217;-74
2022/04/29 00:17:58;;;;;;;7.30;1.70;;;;;;;5.12;74.75;102330.42;103952;1288;74940;-73
2022/04/29 00:20:25;;;;;;;9.70;2.00;;;;;;;5.09;75.73;102328.04;104228;1288;72568;-74
2022/04/29 00:23:08;;;;;;;8.50;1.70;;;;;;;5.07;75.97;102326.95;104160;1288;72996;-75
2022/04/29 00:25:35;;;;;;;4.40;1.50;;;;;;;5.05;76.62;102325.78;104948;1288;61369;-73
2022/04/29 00:28:23;;;;;;;6.90;2.10;;;;;;;5.04;77.19;102323.98;104026;1289;61285;-73
2022/04/29 00:30:50;;;;;;;8.10;1.60;;;;;;;5.02;77.39;102324.06;104174;1288;76167;-74
2022/04/29 00:33:16;;;;;;;7.30;1.90;;;;;;;5.02;78.24;102321.11;104157;1288;72510;-74
2022/04/29 00:35:46;;;;;;;7.60;2.50;;;;;;;5.00;78.18;102317.21;104085;1288;74454;-75
2022/04/29 00:38:33;;;;;;;6.40;1.80;;;;;;;4.98;78.37;102318.02;104156;1288;62524;-75
2022/04/29 00:41:24;;;;;;;2.50;1.60;;;;;;;4.97;78.78;102317.02;104255;1288;61313;-75
2022/04/29 00:44:24;;;;;;;8.60;1.90;;;;;;;4.96;78.88;102318.71;104171;1288;74833;-75
2022/04/29 00:46:53;;;;;;;12.50;2.20;;;;;;;4.92;78.75;102323.32;104508;1288;71573;-74
2022/04/29 00:49:31;;;;;;;;;;;;;;;;;;;;;
2022/04/29 00:52:08;;;;;;;6.90;1.80;;;;;;;4.85;79.24;102323.38;104075;1288;61690;-75
2022/04/29 00:54:48;;;;;;;10.30;2.20;;;;;;;4.81;79.17;102315.58;104124;1288;61181;-74
2022/04/29 00:57:22;;;;;;;7.40;1.80;;;;;;;4.78;79.66;102312.80;103951;1288;75117;-75
2022/04/29 01:00:10;;;;;;;6.10;2.30;;;;;;;4.76;79.87;102305.41;104090;1288;72375;-75
2022/04/29 01:02:43;;;;;;;7.90;2.70;;;;;;;4.73;79.84;102300.33;104765;1288;74059;-76
2022/04/29 01:05:33;;;;;;;7.60;1.60;;;;;;;4.69;79.87;102292.69;105514;1287;61500;-74
2022/04/29 01:08:08;;;;;;;3.50;2.30;;;;;;;4.66;79.99;102292.19;104065;1288;61202;-75
2022/04/29 01:10:46;;;;;;;6.30;1.60;;;;;;;4.63;80.20;102295.38;104602;1288;75198;-76
2022/04/29 01:13:42;;;;;;;;;;;;;;;;;;;;;
2022/04/29 01:16:09;;;;;;;12.00;2.80;;;;;;;4.60;81.61;102301.30;104108;1288;74048;-74
2022/04/29 01:18:48;;;;;;;6.90;2.10;;;;;;;4.60;81.29;102301.00;103888;1288;62690;-75
2022/04/29 01:21:18;;;;;;;3.10;1.40;;;;;;;4.58;81.19;102295.84;103949;1288;61319;-73
2022/04/29 01:24:23;;;;;;;7.40;1.70;;;;;;;4.56;80.95;102291.23;104137;1288;76366;-75
2022/04/29 01:27:13;;;;;;;5.20;1.70;;;;;;;4.53;81.07;102284.95;104135;1288;71701;-73
2022/04/29 01:29:45;;;;;;;7.50;1.60;;;;;;;4.49;81.49;102278.55;104140;1288;71946;-73
2022/04/29 01:32:19;;;;;;;4.90;1.70;;;;;;;4.48;81.79;102285.25;104193;1288;62535;-73
2022/04/29 01:34:51;;;;;;;10.80;2.00;;;;;;;4.47;81.71;102279.20;105217;1288;61335;-74
2022/04/29 01:37:38;;;;;;;4.50;1.60;;;;;;;4.46;81.80;102279.24;104067;1290;74655;-74
2022/04/29 01:40:19;;;;;;;;;;;;;;;;;;;;;
2022/04/29 01:42:55;;;;;;;8.70;1.60;;;;;;;4.45;82.35;102280.31;103970;1288;72872;-72
2022/04/29 01:45:32;;;;;;;4.10;1.90;;;;;;;4.46;82.71;102283.59;104122;1287;61017;-74
2022/04/29 01:48:01;;;;;;;9.20;2.30;;;;;;;4.47;82.94;102284.93;104225;1288;61350;-73
2022/04/29 01:50:28;;;;;;;9.80;2.50;;;;;;;4.48;83.24;102279.65;103791;1290;75574;-74
2022/04/29 01:52:57;;;;;;;6.40;1.80;;;;;;;4.49;83.88;102279.53;104069;1288;72824;-73
2022/04/29 01:55:26;;;;;;;8.50;2.10;;;;;;;4.50;83.56;102278.83;104167;1288;74456;-73
2022/04/29 01:58:32;;;;;;;;;;;;;;;;;;;;;
2022/04/29 02:01:09;;;;;;;7.40;1.80;;;;;;;4.48;83.50;102280.30;105121;1288;60749;-74
2022/04/29 02:03:38;;;;;;;7.50;2.10;;;;;;;4.48;83.32;102280.67;104314;1288;76260;-73
2022/04/29 02:06:43;;;;;;;4.50;2.10;;;;;;;4.48;83.43;102276.50;104213;1287;70187;-74
2022/04/29 02:09:27;;;;;;;4.80;2.60;;;;;;;4.47;83.59;102270.60;104466;1286;73004;-75
2022/04/29 02:12:11;;;;;;;5.00;2.40;;;;;;;4.46;83.56;102267.48;103983;1288;63229;-75
2022/04/29 02:14:43;;;;;;;3.70;1.90;;;;;;;4.46;83.65;102266.98;104201;1288;61444;-74
2022/04/29 02:17:13;;;;;;;5.60;2.20;;;;;;;4.45;83.72;102263.52;104142;1290;76247;-74
2022/04/29 02:19:42;;;;;;;8.40;2.60;;;;;;;4.45;84.02;102258.96;104249;1287;70620;-73
2022/04/29 02:22:13;;;;;;;9.80;3.60;;;;;;;4.45;84.26;102257.55;104156;1288;72929;-74
2022/04/29 02:24:42;;;;;;;4.80;2.70;;;;;;;4.46;84.34;102255.95;104108;1288;62584;-73
2022/04/29 02:27:21;;;;;;;4.20;3.20;;;;;;;4.45;84.53;102246.52;104244;1288;61316;-74
2022/04/29 02:29:58;;;;;;;4.60;2.40;;;;;;;4.46;84.75;102247.85;104205;1288;76613;-73
2022/04/29 02:32:28;;;;;;;6.00;2.50;;;;;;;4.47;84.93;102246.39;104105;1288;71915;-74
2022/04/29 02:35:02;;;;;;;6.80;3.00;;;;;;;4.47;85.00;102243.77;104030;1288;73723;-74
2022/04/29 02:37:37;;;;;;;;;;;;;;;4.47;85.48;102248.86;103962;1288;61553;-74
2022/04/29 02:40:21;;;;;;;9.30;2.60;;;;;;;4.48;85.71;102249.33;104255;1287;61160;-75
2022/04/29 02:42:53;;;;;;;6.70;2.60;;;;;;;4.48;86.22;102251.08;103995;1288;76287;-75
2022/04/29 02:45:54;;;;;;;;;;;;;;;;;;;;;
2022/04/29 02:48:33;;;;;;;4.40;2.50;;;;;;;4.48;86.99;102252.66;106738;1288;73999;-75
2022/04/29 02:51:00;;;;;;;4.90;2.70;;;;;;;4.47;87.05;102252.35;106915;1287;62489;-75
2022/04/29 02:53:36;;;;;;;9.30;3.30;;;;;;;4.46;86.73;102242.27;106521;1287;60193;-75
2022/04/29 02:56:14;;;;;;;22.30;4.30;;;;;;;4.45;86.42;102243.19;104106;1288;75075;-75
2022/04/29 02:58:52;;;;;;;7.90;2.40;;;;;;;4.44;86.82;102240.27;104137;1288;71534;-76
2022/04/29 03:01:33;;;;;;;6.00;2.90;;;;;;;4.41;86.88;102239.23;104927;1288;74141;-75
2022/04/29 03:04:34;;;;;;;6.70;3.30;;;;;;;4.39;86.83;102242.89;104041;1288;61522;-73
2022/04/29 03:07:08;;;;;;;6.10;3.40;;;;;;;4.36;87.03;102240.80;104026;1288;61300;-74
2022/04/29 03:09:52;;;;;;;8.00;2.70;;;;;;;4.34;87.32;102237.44;104064;1288;75980;-74
2022/04/29 03:12:48;;;;;;;6.50;2.70;;;;;;;4.32;87.47;102235.31;104081;1288;72460;-75
2022/04/29 03:15:18;;;;;;;4.70;2.30;;;;;;;4.28;87.45;102225.54;104176;1288;73934;-75
2022/04/29 03:21:11;;;;;;;2.90;2.10;;;;;;;4.23;87.90;102218.86;104111;1288;60576;-75
2022/04/29 03:23:56;;;;;;;8.60;3.40;;;;;;;4.21;88.34;102217.27;104236;1287;73937;-76
2022/04/29 03:26:39;;;;;;;11.30;3.40;;;;;;;4.18;88.55;102219.88;104175;1288;72848;-75
2022/04/29 03:29:57;;;;;;;5.60;3.10;;;;;;;4.16;89.06;102217.19;104071;1288;73199;-75
2022/04/29 03:33:18;;;;;;;8.70;3.10;;;;;;;4.14;89.38;102216.97;104102;1288;62596;-77
2022/04/29 03:36:28;;;;;;;5.50;3.10;;;;;;;4.12;89.55;102219.35;104060;1288;61625;-75
2022/04/29 03:39:25;;;;;;;11.80;3.80;;;;;;;4.09;89.52;102218.10;104020;1285;75955;-73
2022/04/29 03:42:54;;;;;;;7.10;3.50;;;;;;;4.07;89.78;102212.32;104162;1288;72453;-75
2022/04/29 03:45:26;;;;;;;9.80;3.00;;;;;;;4.04;89.94;102208.27;103874;1288;75084;-74
2022/04/29 03:48:03;;;;;;;8.50;3.30;;;;;;;4.02;90.13;102204.89;104004;1288;62453;-76
2022/04/29 03:50:40;;;;;;;6.80;3.30;;;;;;;4.00;89.96;102202.77;105106;1288;61285;-75
2022/04/29 03:53:07;;;;;;;10.80;3.60;;;;;;;3.98;90.03;102202.20;103828;1288;76514;-76
2022/04/29 03:56:02;;;;;;;12.10;5.20;;;;;;;3.95;90.37;102208.17;103795;1288;70449;-77
2022/04/29 03:58:47;;;;;;;8.40;3.50;;;;;;;3.92;90.65;102210.08;104485;1288;73325;-76
2022/04/29 04:01:33;;;;;;;;;;;;;;;;;;;;;
2022/04/29 04:04:11;;;;;;;6.40;3.80;;;;;;;3.88;91.25;102211.59;104498;1289;61225;-74
2022/04/29 04:06:49;;;;;;;7.80;3.90;;;;;;;3.85;91.18;102210.00;103892;1290;74965;-72
2022/04/29 04:09:29;;;;;;;8.50;3.40;;;;;;;3.83;91.31;102206.80;104259;1288;70065;-73
2022/04/29 04:12:18;;;;;;;5.00;2.90;;;;;;;3.81;91.49;102204.63;104076;1288;73995;-72
2022/04/29 04:15:16;;;;;;;;;;;;;;;;;;;;;
2022/04/29 04:17:50;;;;;;;13.60;5.00;;;;;;;3.79;92.44;102212.61;104802;1288;61250;-72
2022/04/29 04:20:28;;;;;;;14.00;5.50;;;;;;;3.79;92.60;102216.81;104331;1288;74903;-73
2022/04/29 04:22:54;;;;;;;11.10;3.40;;;;;;;3.82;92.98;102218.75;104073;1287;72767;-72
2022/04/29 04:25:50;;;;;;;9.30;4.30;;;;;;;3.84;93.06;102214.26;104269;1287;72809;-74
2022/04/29 04:28:24;;;;;;;10.90;4.10;;;;;;;3.86;92.84;102212.90;104287;1287;63767;-73
2022/04/29 04:31:16;;;;;;;9.00;4.00;;;;;;;3.88;92.74;102212.05;104409;1288;61416;-73
2022/04/29 04:33:52;;;;;;;11.20;4.20;;;;;;;3.91;92.49;102209.80;106906;1288;76392;-74
2022/04/29 04:36:19;;;;;;;8.20;3.80;;;;;;;3.92;92.39;102211.31;105134;1288;72681;-74
2022/04/29 04:38:47;;;;;;;12.20;4.70;;;;;;;3.94;92.49;102216.26;104308;1288;74246;-74
2022/04/29 04:41:17;;;;;;;5.40;3.10;;;;;;;3.97;92.53;102217.52;104002;1288;61741;-74
2022/04/29 04:43:44;;;;;;;8.20;4.00;;;;;;;4.00;92.46;102220.64;104281;1288;61303;-74
2022/04/29 04:46:13;;;;;;;11.30;4.00;;;;;;;4.01;93.17;102214.59;104228;1288;75969;-74
2022/04/29 04:48:41;;;;;;;9.00;3.90;;;;;;;4.04;93.13;102218.08;104365;1288;70525;-69
2022/04/29 04:51:08;;;;;;;8.70;3.70;;;;;;;4.09;93.60;102219.38;104384;1287;74079;-71
2022/04/29 04:53:38;;;;;;;10.90;3.40;;;;;;;4.14;93.57;102217.49;104121;1290;62458;-67
2022/04/29 04:56:10;;;;;;;6.80;3.70;;;;;;;4.19;93.48;102216.32;104180;1288;61690;-68
2022/04/29 04:58:37;;;;;;;9.00;3.90;;;;;;;4.25;93.98;102215.55;104276;1288;75986;-67
2022/04/29 05:01:10;;;;;;;5.00;3.30;;;;;;;4.30;94.30;102217.88;104158;1288;72426;-73
2022/04/29 05:03:44;;;;;;;9.00;4.00;;;;;;;4.34;94.14;102219.38;104033;1288;74119;-66
2022/04/29 05:06:14;;;;;;;10.00;4.20;;;;;;;4.41;94.02;102223.36;104180;1288;62190;-66
2022/04/29 05:08:46;;;;;;;11.40;3.90;;;;;;;4.44;94.29;102227.30;104180;1290;61771;-64
2022/04/29 05:11:13;;;;;;;10.20;4.10;;;;;;;4.50;93.96;102227.33;104236;1287;78358;-64
2022/04/29 05:14:02;;;;;;;10.20;3.50;;;;;;;4.55;93.94;102230.68;104238;1288;70830;-65
2022/04/29 05:16:29;;;;;;;6.90;3.60;;;;;;;4.61;93.47;102229.23;103436;1288;74098;-65
2022/04/29 05:19:00;;;;;;;12.00;5.50;;;;;;;4.68;93.64;102234.77;104197;1288;62353;-64
2022/04/29 05:21:41;;;;;;;11.40;4.60;;;;;;;4.74;93.38;102233.68;104285;1288;61297;-64
2022/04/29 05:24:17;;;;;;;8.30;3.70;;;;;;;4.77;93.27;102235.05;104595;1288;74931;-63
2022/04/29 05:26:49;;;;;;;12.00;3.80;;;;;;;4.80;93.52;102240.27;104616;1289;72306;-65
2022/04/29 05:29:16;;;;;;;8.40;3.90;;;;;;;4.84;93.47;102238.13;104185;1288;74028;-65
2022/04/29 05:31:53;;;;;;;9.90;3.70;;;;;;;4.88;93.41;102236.44;104114;1290;62381;-65
2022/04/29 05:34:23;;;;;;;10.70;4.10;;;;;;;4.94;93.30;102242.71;104302;1288;61210;-65
2022/04/29 05:36:49;;;;;;;12.00;5.60;;;;;;;5.01;93.08;102248.77;104192;1290;76059;-65
2022/04/29 05:42:19;;;;;;;13.30;4.50;;;;;;;5.13;92.48;102257.75;104046;1288;72604;-65
2022/04/29 05:44:52;;;;;;;8.80;4.20;;;;;;;5.19;92.50;102261.39;104179;1288;61425;-64
2022/04/29 05:47:24;;;;;;;8.80;4.70;;;;;;;5.26;92.06;102260.61;103960;1288;62118;-63
2022/04/29 05:49:53;;;;;;;13.40;4.90;;;;;;;5.34;92.07;102256.92;103475;1288;74942;-64
2022/04/29 05:52:20;;;;;;;10.80;4.00;;;;;;;5.43;92.04;102252.13;103533;1288;73089;-61
2022/04/29 05:54:55;;;;;;;10.00;4.60;;;;;;;5.50;92.35;102246.20;103911;1288;61762;-67
2022/04/29 05:57:25;;;;;;;12.10;5.10;;;;;;;5.60;91.81;102241.48;104037;1288;62499;-66
2022/04/29 06:00:15;;;;;;;12.70;4.70;;;;;;;5.70;91.77;102230.63;103927;1288;61454;-71
2022/04/29 06:03:11;;;;;;;11.90;4.10;;;;;;;5.80;91.81;102225.22;104270;1287;74709;-80
2022/04/29 06:05:37;;;;;;;11.10;5.10;;;;;;;5.89;90.86;102231.95;105071;1288;72572;-66
2022/04/29 06:08:13;;;;;;;14.60;5.90;;;;;;;5.95;90.73;102234.05;104088;1288;74313;-67
2022/04/29 06:10:40;;;;;;;14.90;5.20;;;;;;;6.00;90.13;102228.80;104077;1288;62578;-65
2022/04/29 06:13:09;;;;;;;16.00;4.90;;;;;;;6.06;90.06;102228.01;104107;1288;61326;-66
2022/04/29 06:15:46;;;;;;;10.40;4.50;;;;;;;6.11;89.93;102228.67;105291;1288;75940;-66
2022/04/29 06:18:15;;;;;;;11.60;5.40;;;;;;;6.15;89.32;102227.34;105829;1288;71467;-68
2022/04/29 06:20:49;;;;;;;8.30;4.40;;;;;;;6.21;89.24;102223.08;103983;1288;74099;-67
2022/04/29 06:23:16;;;;;;;7.50;3.80;;;;;;;6.26;89.00;102224.45;104003;1288;61776;-67
2022/04/29 06:25:58;;;;;;;7.40;4.40;;;;;;;6.28;88.75;102214.28;103956;1288;61354;-66
2022/04/29 06:28:26;;;;;;;11.30;4.70;;;;;;;6.37;88.62;102219.32;104151;1288;75719;-65
2022/04/29 06:31:11;;;;;;;8.50;4.90;;;;;;;6.42;88.42;102220.34;104077;1287;72742;-67
2022/04/29 06:33:49;;;;;;;8.70;5.00;;;;;;;6.50;88.24;102223.11;105528;1288;72997;-68
2022/04/29 06:36:15;;;;;;;11.40;5.40;;;;;;;6.64;88.25;102223.84;104036;1288;61440;-69
2022/04/29 06:38:45;;;;;;;12.50;5.70;;;;;;;6.79;87.95;102217.68;104092;1291;61300;-69
2022/04/29 06:41:14;;;;;;;11.40;4.70;;;;;;;7.00;87.92;102215.40;104185;1288;75030;-67
2022/04/29 06:44:04;;;;;;;8.90;4.80;;;;;;;7.23;87.30;102216.17;104220;1285;72417;-67
2022/04/29 06:46:39;;;;;;;10.60;4.70;;;;;;;7.48;86.21;102217.58;103948;1290;74038;-68
2022/04/29 06:49:24;;;;;;;20.70;5.70;;;;;;;7.76;85.84;102220.77;104155;1290;62222;-66
2022/04/29 06:51:54;;;;;;;12.10;5.50;;;;;;;8.06;85.01;102219.79;104881;1288;63294;-66
2022/04/29 06:54:23;;;;;;;10.30;5.00;;;;;;;8.34;83.63;102219.16;104226;1288;76012;-68
2022/04/29 06:56:52;;;;;;;12.20;5.70;;;;;;;8.54;82.27;102215.13;104169;1288;72634;-67
2022/04/29 06:59:27;;;;;;;7.20;3.60;;;;;;;8.73;81.77;102221.71;104635;1288;74086;-67
2022/04/29 07:01:54;;;;;;;11.70;5.20;;;;;;;8.90;79.34;102224.59;103903;1288;63691;-66
2022/04/29 07:04:28;;;;;;;9.10;5.20;;;;;;;8.99;78.96;102228.95;104140;1288;61357;-64
2022/04/29 07:06:57;;;;;;;15.50;8.20;;;;;;;9.20;78.76;102223.31;104078;1288;76000;-66
2022/04/29 07:09:27;;;;;;;17.20;8.30;;;;;;;9.51;77.78;102219.48;104009;1288;70634;-66
2022/04/29 07:12:24;;;;;;;15.80;8.00;;;;;;;9.88;76.61;102214.14;104030;1290;74350;-66
2022/04/29 07:15:00;;;;;;;13.90;8.20;;;;;;;10.13;75.21;102216.60;104064;1288;63075;-69
2022/04/29 07:17:30;;;;;;;13.90;8.00;;;;;;;10.35;74.62;102213.09;104000;1287;61642;-69
2022/04/29 07:19:58;;;;;;;14.00;7.90;;;;;;;10.51;73.67;102208.67;104054;1290;74789;-69
2022/04/29 07:22:27;;;;;;;12.90;7.20;;;;;;;10.62;72.98;102204.66;104029;1290;71500;-68
2022/04/29 07:25:00;;;;;;;18.30;7.80;;;;;;;10.71;71.96;102200.52;103745;1288;74054;-68
2022/04/29 07:27:38;;;;;;;13.70;7.50;;;;;;;10.77;71.77;102200.91;103981;1291;63312;-69
2022/04/29 07:30:11;;;;;;;15.30;8.00;;;;;;;10.85;71.43;102205.27;106839;1287;60331;-69
2022/04/29 07:32:38;;;;;;;17.10;7.60;;;;;;;10.94;71.23;102200.57;104194;1289;73925;-65
2022/04/29 07:43:36;;;;;;;13.90;7.40;;;;;;;11.20;68.85;102183.77;103263;1288;61555;-64
2022/04/29 07:46:12;;;;;;;16.40;7.40;;;;;;;11.26;68.48;102186.64;103237;1288;75322;-65
2022/04/29 07:48:39;;;;;;;15.20;7.70;;;;;;;11.25;68.01;102195.38;104035;1288;71894;-67
2022/04/29 07:51:08;;;;;;;11.90;7.40;;;;;;;11.32;68.24;102196.33;104119;1288;73900;-65
2022/04/29 07:53:38;;;;;;;12.90;7.60;;;;;;;11.43;68.00;102202.55;103168;1288;63345;-64
2022/04/29 07:56:07;;;;;;;13.40;7.10;;;;;;;11.53;67.03;102205.73;103256;1288;61275;-65
2022/04/29 07:58:34;;;;;;;11.80;7.00;;;;;;;11.58;66.44;102204.93;103225;1287;76022;-63
2022/04/29 08:01:01;;;;;;;15.20;6.80;;;;;;;11.62;66.17;102196.76;103327;1288;70793;-65
2022/04/29 08:03:33;;;;;;;14.10;6.30;;;;;;;11.73;65.74;102194.61;103199;1288;72841;-65
2022/04/29 08:06:00;;;;;;;12.60;6.60;;;;;;;11.77;64.27;102194.02;103165;1288;62200;-65
2022/04/29 08:08:30;;;;;;;12.30;6.40;;;;;;;11.85;64.08;102197.95;104068;1288;61338;-68
2022/04/29 08:10:57;;;;;;;14.90;7.00;;;;;;;11.95;64.28;102196.11;104040;1290;72939;-68
2022/04/29 08:13:24;;;;;;;10.60;6.80;;;;;;;12.15;64.64;102194.71;103992;1288;71709;-68
2022/04/29 08:15:56;;;;;;;13.80;7.30;;;;;;;12.42;64.61;102194.42;104014;1288;74051;-68
2022/04/29 08:18:26;;;;;;;14.60;7.10;;;;;;;12.68;63.48;102196.30;104028;1288;62031;-68
2022/04/29 08:20:56;;;;;;;12.70;6.80;;;;;;;12.82;62.56;102195.45;104073;1290;61309;-69
2022/04/29 08:23:26;;;;;;;10.90;6.30;;;;;;;12.99;62.18;102188.95;104060;1288;76060;-68
2022/04/29 08:25:52;;;;;;;11.90;6.70;;;;;;;13.10;60.59;102190.73;104085;1288;72394;-67
2022/04/29 08:28:19;;;;;;;14.30;7.00;;;;;;;13.16;60.93;102190.27;103847;1288;72987;-67
2022/04/29 08:30:46;;;;;;;13.30;7.20;;;;;;;13.34;61.46;102189.29;104010;1288;61462;-67
2022/04/29 08:33:18;;;;;;;11.20;6.30;;;;;;;13.53;59.89;102188.85;103902;1290;61329;-68
2022/04/29 08:35:51;;;;;;;11.00;6.30;;;;;;;13.63;58.95;102187.48;103945;1288;74075;-68
2022/04/29 08:38:19;;;;;;;14.60;7.00;;;;;;;13.64;57.54;102180.74;103844;1288;72466;-68
2022/04/29 08:40:59;;;;;;;12.40;6.40;;;;;;;13.69;58.05;102172.48;104015;1287;73375;-68
2022/04/29 08:43:27;;;;;;;11.80;6.00;;;;;;;13.84;58.22;102170.20;103862;1290;61213;-69
2022/04/29 08:45:54;;;;;;;12.30;6.30;;;;;;;13.98;57.76;102166.73;104036;1288;61502;-69
2022/04/29 08:48:23;;;;;;;11.50;6.40;;;;;;;14.15;57.54;102165.11;104069;1288;74912;-69
2022/04/29 08:50:50;;;;;;;14.90;6.70;;;;;;;14.31;57.05;102167.33;104030;1287;70678;-68
2022/04/29 08:53:19;;;;;;;11.80;6.20;;;;;;;14.51;56.47;102168.97;104033;1288;72265;-69
2022/04/29 08:58:40;;;;;;;11.20;5.90;;;;;;;14.87;54.54;102165.27;104016;1288;61459;-67
2022/04/29 09:01:16;;;;;;;13.50;5.90;;;;;;;15.02;53.19;102158.62;104071;1287;76120;-66
2022/04/29 09:03:44;;;;;;;10.70;5.70;;;;;;;15.12;51.50;102154.71;103918;1290;72262;-69
2022/04/29 09:06:12;;;;;;;12.00;5.80;;;;;;;15.25;51.15;102151.88;104087;1288;73370;-67
2022/04/29 09:08:45;;;;;;;11.70;5.60;;;;;;;15.40;50.22;102155.02;104012;1288;61783;-70
2022/04/29 09:11:26;;;;;;;10.90;5.50;;;;;;;15.48;48.96;102153.72;104030;1288;61246;-69
2022/04/29 09:13:54;;;;;;;8.80;5.20;;;;;;;15.67;49.75;102149.46;103951;1288;75939;-68
2022/04/29 09:16:21;;;;;;;11.90;5.40;;;;;;;15.83;48.45;102150.70;103635;1288;71877;-68
2022/04/29 09:18:50;;;;;;;11.40;5.40;;;;;;;16.03;49.50;102148.09;104085;1287;73826;-68
2022/04/29 09:21:19;;;;;;;9.80;5.50;;;;;;;16.23;49.39;102141.05;103758;1289;61976;-68
2022/04/29 09:23:54;;;;;;;11.10;5.30;;;;;;;16.55;49.37;102150.14;103999;1288;61727;-67
2022/04/29 09:26:29;;;;;;;10.70;5.90;;;;;;;16.72;47.64;102151.20;105050;1288;75286;-68
2022/04/29 09:29:17;;;;;;;10.90;5.70;;;;;;;16.90;47.54;102154.14;103684;1288;72409;-67
2022/04/29 09:32:00;;;;;;;8.70;5.30;;;;;;;17.03;45.85;102143.71;103978;1288;74561;-67
2022/04/29 09:34:47;;;;;;;9.70;5.60;;;;;;;17.04;45.75;102143.35;103961;1288;61447;-69
2022/04/29 09:37:19;;;;;;;12.40;5.60;;;;;;;17.21;46.23;102139.73;103753;1288;62110;-71
2022/04/29 09:39:51;;;;;;;8.90;5.50;;;;;;;17.34;45.34;102134.27;103903;1288;75815;-68
2022/04/29 09:42:18;;;;;;;8.50;4.40;;;;;;;17.53;45.21;102134.27;104795;1288;321839;-67
2022/04/29 09:44:45;;;;;;;10.90;5.10;;;;;;;17.67;44.63;102124.67;103933;1290;74046;-68
2022/04/29 09:47:14;;;;;;;8.70;4.80;;;;;;;17.79;42.89;102119.89;104019;1287;62890;-67
2022/04/29 09:49:54;;;;;;;8.80;4.50;;;;;;;17.76;42.07;102121.83;104055;1288;62174;-68
2022/04/29 09:52:21;;;;;;;9.90;5.20;;;;;;;17.81;43.16;102120.13;103982;1288;76235;-68
2022/04/29 09:54:54;;;;;;;8.50;5.20;;;;;;;18.09;43.54;102118.59;103800;1290;71501;-66
2022/04/29 09:57:34;;;;;;;10.80;5.10;;;;;;;18.37;42.73;102117.94;103913;1288;72321;-66
2022/04/29 10:00:10;;;;;;;13.20;5.00;;;;;;;18.62;42.41;102116.83;103578;1290;61275;-65
2022/04/29 10:02:37;;;;;;;9.40;4.90;;;;;;;18.78;41.23;102109.75;103928;1290;61957;-68
2022/04/29 10:05:14;;;;;;;10.60;5.10;;;;;;;18.96;41.09;102108.00;103966;1288;75116;-65
2022/04/29 10:07:49;;;;;;;8.80;5.30;;;;;;;19.12;39.88;102105.77;104008;1288;72844;-67
2022/04/29 10:10:17;;;;;;;9.00;4.80;;;;;;;19.26;40.12;102103.10;104176;1288;74288;-66
2022/04/29 10:12:50;;;;;;;10.40;5.40;;;;;;;19.50;40.72;102094.11;104043;1288;61441;-67
2022/04/29 10:15:18;;;;;;;8.00;5.60;;;;;;;19.79;39.15;102098.16;103796;1288;61708;-65
2022/04/29 10:23:25;;;;;;;10.00;5.30;;;;;;;20.29;38.75;102087.83;104165;1288;73100;-65
2022/04/29 10:25:55;;;;;;;9.90;5.50;;;;;;;20.50;37.90;102089.70;103955;1288;62106;-67
2022/04/29 10:28:24;;;;;;;10.70;6.10;;;;;;;20.57;36.48;102091.79;103733;1288;61278;-66
2022/04/29 10:31:06;;;;;;;9.70;5.80;;;;;;;20.64;36.45;102095.01;103866;1288;76182;-67
2022/04/29 10:33:48;;;;;;;9.50;6.10;;;;;;;20.65;36.12;102094.67;104010;1288;72511;-70
2022/04/29 10:36:16;;;;;;;11.80;6.20;;;;;;;20.71;36.24;102089.94;103634;1290;73122;-69
2022/04/29 10:38:46;;;;;;;13.10;6.10;;;;;;;20.95;36.05;102083.02;103467;1291;61295;-70
2022/04/29 10:41:17;;;;;;;11.10;5.70;;;;;;;21.14;35.33;102084.31;104140;1288;61844;-70
2022/04/29 10:43:54;;;;;;;7.90;5.20;;;;;;;21.27;35.41;102084.23;103890;1288;75986;-67
2022/04/29 10:46:39;;;;;;;9.40;5.40;;;;;;;21.58;36.02;102075.67;103824;1288;73328;-68
2022/04/29 10:49:35;;;;;;;10.20;5.10;;;;;;;21.85;35.31;102074.70;103936;1288;71578;-69
2022/04/29 10:52:04;;;;;;;7.80;4.10;;;;;;;22.03;34.45;102072.49;103931;1290;61395;-69
2022/04/29 10:54:33;;;;;;;11.10;4.40;;;;;;;22.08;34.68;102070.20;104017;1288;61333;-66
2022/04/29 10:57:07;;;;;;;12.00;5.70;;;;;;;22.14;33.62;102069.21;104140;1288;74840;-68
2022/04/29 11:00:11;;;;;;;9.10;4.60;;;;;;;21.92;32.70;102061.57;103904;1289;71430;-67
2022/04/29 11:02:43;;;;;;;12.10;5.20;;;;;;;21.74;33.97;102068.63;103091;1297;73901;-66
2022/04/29 11:05:39;;;;;;;10.40;4.80;;;;;;;21.64;33.56;102064.44;103951;1289;61333;-66
2022/04/29 11:08:07;;;;;;;;;;;;;;;21.29;32.96;102062.77;104046;1290;61380;-65
2022/04/29 11:11:02;;;;;;;9.40;5.00;;;;;;;20.95;33.23;102066.13;104093;1289;74774;-65
2022/04/29 11:13:33;;;;;;;5.70;4.60;;;;;;;20.65;33.19;102063.05;103906;1290;70682;-65
2022/04/29 11:16:17;;;;;;;9.70;5.20;;;;;;;20.48;33.60;102057.94;104113;1288;72454;-66
2022/04/29 11:19:23;;;;;;;6.70;4.60;;;;;;;20.45;34.03;102054.91;104038;1290;61800;-66
2022/04/29 11:24:47;;;;;;;8.20;4.90;;;;;;;20.43;35.62;102045.83;103774;1290;75981;-67
2022/04/29 11:27:25;;;;;;;12.50;6.40;;;;;;;20.38;34.85;102047.81;103994;1288;72465;-66
2022/04/29 11:30:01;;;;;;;8.40;5.70;;;;;;;20.26;35.48;102048.43;104741;1288;74390;-64
2022/04/29 11:32:29;;;;;;;10.20;4.90;;;;;;;20.24;36.55;102039.85;103935;1288;61327;-67
2022/04/29 11:35:03;;;;;;;9.20;5.20;;;;;;;20.23;36.74;102039.23;103778;1290;61295;-64
2022/04/29 11:37:35;;;;;;;12.80;5.90;;;;;;;20.21;36.93;102036.21;103999;1290;75347;-65
2022/04/29 11:40:08;;;;;;;8.80;5.70;;;;;;;20.34;36.66;102028.83;104050;1288;72550;-66
2022/04/29 11:42:36;;;;;;;13.40;8.50;;;;;;;20.43;36.21;102026.66;104313;1288;75378;-64
2022/04/29 11:45:12;;;;;;;21.70;11.20;;;;;;;20.61;35.77;102021.91;103985;1288;61743;-66
2022/04/29 11:47:39;;;;;;;9.10;6.00;;;;;;;20.70;34.50;102018.34;103876;1290;61827;-66
2022/04/29 11:50:09;;;;;;;10.90;5.40;;;;;;;20.80;35.06;102016.41;104004;1289;74617;-66
2022/04/29 11:52:39;;;;;;;11.60;5.60;;;;;;;20.94;34.65;102013.80;104029;1289;72466;-67
2022/04/29 11:55:12;;;;;;;8.60;5.90;;;;;;;21.16;35.25;102006.42;103595;1290;74164;-65
2022/04/29 11:57:50;;;;;;;11.10;4.40;;;;;;;21.48;34.34;101997.62;103675;1288;61442;-66
2022/04/29 12:00:33;;;;;;;8.80;5.10;;;;;;;21.73;33.32;101995.08;104089;1289;61339;-66
2022/04/29 12:03:01;;;;;;;8.30;4.90;;;;;;;21.96;33.16;101999.32;104071;1289;76157;-67
2022/04/29 12:05:29;;;;;;;6.70;3.90;;;;;;;22.19;32.97;101996.50;104075;1290;72108;-64
2022/04/29 12:08:01;;;;;;;6.20;4.30;;;;;;;22.57;32.27;101989.15;104140;1290;72988;-65
2022/04/29 12:10:29;;;;;;;9.40;5.60;;;;;;;22.90;31.55;101988.04;104160;1290;61338;-64
2022/04/29 12:13:00;;;;;;;9.30;4.70;;;;;;;23.21;31.35;101986.94;104075;1288;61228;-63
2022/04/29 12:15:30;;;;;;;12.40;6.40;;;;;;;23.54;30.84;101985.48;103948;1288;76253;-63
2022/04/29 12:17:59;;;;;;;7.50;5.30;;;;;;;23.85;30.17;101982.24;103706;1288;72403;-64
2022/04/29 12:20:35;;;;;;;12.10;5.50;;;;;;;24.01;29.24;101980.77;103623;1290;72959;-62
2022/04/29 12:23:11;;;;;;;10.00;6.00;;;;;;;24.20;29.30;101981.66;104359;1290;61347;-63
2022/04/29 12:25:42;;;;;;;9.80;4.40;;;;;;;24.58;29.47;101974.41;104113;1288;61629;-64
2022/04/29 12:28:10;;;;;;;11.30;5.60;;;;;;;24.89;28.59;101977.41;104432;1290;74829;-63
2022/04/29 12:37:07;;;;;;;8.30;5.20;;;;;;;25.13;26.91;101963.88;103346;1290;61723;-65
2022/04/29 12:39:39;;;;;;;8.20;4.90;;;;;;;25.00;27.06;101966.28;103842;1290;63076;-63